createdAt,value
2022-12-03T00:00:14.660Z,69.80
2022-12-03T00:03:00.230Z,69.90
2022-12-03T00:05:29.644Z,69.80
2022-12-03T00:07:58.427Z,70.50
2022-12-03T00:10:27.029Z,70.90
2022-12-03T00:12:56.434Z,71.30
2022-12-03T00:15:24.887Z,71.10
2022-12-03T00:17:53.267Z,71.20
2022-12-03T00:27:52.638Z,70.40
2022-12-03T00:30:21.157Z,71.70
2022-12-03T00:32:49.626Z,71.40
2022-12-03T00:35:18.396Z,72.00
2022-12-03T00:37:48.380Z,71.50
2022-12-03T00:40:17.275Z,71.50
2022-12-03T00:42:46.378Z,72.20
2022-12-03T00:45:15.417Z,71.70
2022-12-03T00:47:45.063Z,71.80
2022-12-03T00:50:14.366Z,71.80
2022-12-03T00:52:43.145Z,71.50
2022-12-03T00:55:13.221Z,72.20
2022-12-03T00:57:42.537Z,71.80
2022-12-03T01:45:56.892Z,71.10
2022-12-03T01:48:25.511Z,71.20
2022-12-03T01:50:54.045Z,71.20
2022-12-03T01:53:22.515Z,71.20
2022-12-03T01:55:50.938Z,71.30
2022-12-03T01:58:29.978Z,71.30
2022-12-03T02:45:23.321Z,71.10
2022-12-03T02:47:56.253Z,71.40
2022-12-03T02:50:29.576Z,71.40
2022-12-03T02:53:01.673Z,71.70
2022-12-03T02:55:36.812Z,71.20
2022-12-03T02:58:06.523Z,71.50
2022-12-03T03:47:25.702Z,71.20
2022-12-03T03:49:54.234Z,71.40
2022-12-03T03:52:23.835Z,71.40
2022-12-03T03:54:52.675Z,71.40
2022-12-03T03:57:21.403Z,71.30
2022-12-03T03:59:50.006Z,71.40
2022-12-03T04:46:12.679Z,71.20
2022-12-03T04:48:41.182Z,71.40
2022-12-03T04:51:09.620Z,72.30
2022-12-03T04:53:43.258Z,72.20
2022-12-03T04:56:14.537Z,72.10
2022-12-03T04:58:43.026Z,72.10
2022-12-03T05:31:08.131Z,68.90
2022-12-03T05:33:42.433Z,69.70
2022-12-03T05:36:12.531Z,69.00
2022-12-03T05:38:40.976Z,69.10
2022-12-03T05:41:23.232Z,69.00
2022-12-03T05:43:52.715Z,69.10
2022-12-03T05:46:22.451Z,68.90
2022-12-03T05:48:51.175Z,68.90
2022-12-03T05:51:19.902Z,68.90
2022-12-03T05:53:48.836Z,69.00
2022-12-03T05:56:18.118Z,69.00
2022-12-03T05:58:46.520Z,69.00
2022-12-03T06:01:15.298Z,69.00
2022-12-03T06:03:45.310Z,69.60
2022-12-03T06:06:13.894Z,68.80
2022-12-03T06:08:42.224Z,68.80
2022-12-03T06:11:10.576Z,68.90
2022-12-03T06:13:38.874Z,68.80
2022-12-03T06:16:07.578Z,68.70
2022-12-03T06:18:36.234Z,68.70
2022-12-03T06:21:07.778Z,68.70
2022-12-03T06:23:37.334Z,68.80
2022-12-03T06:26:05.895Z,68.50
2022-12-03T06:28:35.202Z,68.70
2022-12-03T06:31:04.289Z,68.60
2022-12-03T06:33:33.041Z,69.00
2022-12-03T06:36:01.692Z,68.80
2022-12-03T06:38:31.751Z,68.70
2022-12-03T06:41:00.086Z,68.80
2022-12-03T06:43:28.520Z,68.30
2022-12-03T06:45:56.758Z,70.30
2022-12-03T06:48:25.833Z,69.40
2022-12-03T06:50:54.175Z,69.20
2022-12-03T06:53:22.567Z,69.30
2022-12-03T06:55:52.754Z,67.30
2022-12-03T06:58:21.435Z,66.30
2022-12-03T07:00:50.643Z,66.30
2022-12-03T07:03:19.716Z,66.10
2022-12-03T07:05:48.246Z,66.20
2022-12-03T07:08:17.104Z,66.10
2022-12-03T07:10:45.412Z,66.40
2022-12-03T07:13:15.144Z,67.00
2022-12-03T07:15:43.495Z,66.10
2022-12-03T07:18:11.939Z,66.30
2022-12-03T07:20:40.413Z,66.40
2022-12-03T07:23:08.728Z,66.70
2022-12-03T07:25:38.476Z,67.00
2022-12-03T07:28:07.154Z,66.60
2022-12-03T07:30:37.205Z,66.90
2022-12-03T07:33:06.015Z,66.80
2022-12-03T07:35:35.039Z,66.40
2022-12-03T07:38:03.370Z,66.30
2022-12-03T07:40:32.187Z,66.40
2022-12-03T07:43:00.490Z,66.50
2022-12-03T07:45:28.808Z,66.40
2022-12-03T07:47:58.506Z,66.30
2022-12-03T07:50:28.249Z,66.20
2022-12-03T07:52:56.897Z,66.40
2022-12-03T07:55:25.951Z,66.30
2022-12-03T07:57:54.347Z,66.30
2022-12-03T08:00:24.624Z,66.20
2022-12-03T08:02:53.292Z,66.30
2022-12-03T08:05:23.250Z,66.20
2022-12-03T08:07:51.676Z,66.30
2022-12-03T08:10:20.757Z,66.30
2022-12-03T08:12:49.430Z,66.20
2022-12-03T08:15:20.580Z,66.30
2022-12-03T08:17:55.655Z,66.10
2022-12-03T08:20:28.471Z,66.00
2022-12-03T08:22:57.447Z,66.10
2022-12-03T08:25:30.100Z,66.20
2022-12-03T08:28:08.494Z,66.20
2022-12-03T08:30:36.914Z,66.10
2022-12-03T08:33:17.984Z,66.20
2022-12-03T08:35:51.996Z,66.00
2022-12-03T08:38:24.262Z,66.30
2022-12-03T08:40:55.541Z,66.10
2022-12-03T08:43:26.076Z,66.00
2022-12-03T08:45:56.105Z,66.10
2022-12-03T08:48:33.836Z,66.20
2022-12-03T08:51:12.246Z,65.90
2022-12-03T08:53:46.978Z,66.10
2022-12-03T08:56:24.176Z,66.20
2022-12-03T08:58:56.924Z,64.70
2022-12-03T09:01:40.103Z,64.70
2022-12-03T09:04:30.199Z,65.60
2022-12-03T09:07:00.495Z,64.30
2022-12-03T09:09:28.826Z,63.20
2022-12-03T09:11:57.438Z,63.40
2022-12-03T09:14:25.883Z,63.40
2022-12-03T09:16:55.979Z,63.20
2022-12-03T09:19:25.943Z,63.60
2022-12-03T09:21:55.137Z,64.20
2022-12-03T09:24:25.228Z,67.90
2022-12-03T09:26:53.880Z,67.40
2022-12-03T09:29:22.625Z,66.20
2022-12-03T09:31:51.586Z,67.20
2022-12-03T09:34:20.445Z,66.40
2022-12-03T09:36:48.819Z,66.30
2022-12-03T09:39:17.539Z,65.90
2022-12-03T09:41:47.441Z,65.80
2022-12-03T09:44:18.097Z,65.50
2022-12-03T09:46:49.341Z,65.30
2022-12-03T09:49:19.747Z,65.10
2022-12-03T09:51:48.844Z,65.00
2022-12-03T09:54:25.561Z,64.80
2022-12-03T09:56:56.921Z,64.80
2022-12-03T09:59:31.439Z,64.60
2022-12-03T10:02:00.540Z,64.60
2022-12-03T10:04:29.916Z,64.80
2022-12-03T10:06:59.381Z,64.70
2022-12-03T10:09:30.177Z,64.60
2022-12-03T10:12:00.953Z,64.40
2022-12-03T10:14:29.719Z,64.40
2022-12-03T10:16:59.282Z,64.40
2022-12-03T10:19:31.704Z,64.40
2022-12-03T10:22:00.147Z,64.20
2022-12-03T10:24:30.635Z,64.50
2022-12-03T10:27:02.479Z,64.20
2022-12-03T10:29:34.853Z,64.40
2022-12-03T10:32:09.427Z,64.20
2022-12-03T10:34:40.997Z,64.50
2022-12-03T10:37:16.037Z,64.50
2022-12-03T10:40:01.618Z,64.30
2022-12-03T10:42:35.026Z,64.50
2022-12-03T10:45:20.609Z,64.40
2022-12-03T10:48:14.177Z,64.50
2022-12-03T10:50:54.617Z,64.50
2022-12-03T10:53:28.466Z,64.20
2022-12-03T10:55:59.521Z,64.50
2022-12-03T10:58:35.250Z,64.80
2022-12-03T11:01:07.947Z,64.50
2022-12-03T11:03:37.876Z,64.40
2022-12-03T11:06:07.666Z,64.60
2022-12-03T11:08:38.162Z,65.10
2022-12-03T11:11:11.564Z,66.40
2022-12-03T11:13:54.916Z,66.40
2022-12-03T11:17:09.867Z,66.80
2022-12-03T11:19:50.580Z,67.80
2022-12-03T11:22:44.558Z,69.50
2022-12-03T11:25:57.494Z,70.40
2022-12-03T11:28:54.312Z,73.00
2022-12-03T11:31:41.780Z,73.50
2022-12-03T11:34:50.084Z,74.30
2022-12-03T11:37:29.485Z,74.00
2022-12-03T11:40:34.736Z,73.50
2022-12-03T11:43:10.829Z,73.30
2022-12-03T11:45:40.787Z,72.90
2022-12-03T11:48:16.303Z,72.40
2022-12-03T11:50:50.895Z,70.60
2022-12-03T11:53:23.686Z,73.30
2022-12-03T11:56:06.190Z,78.70
2022-12-03T11:58:36.300Z,76.10
2022-12-03T12:01:09.477Z,77.20
2022-12-03T12:03:45.191Z,79.60
2022-12-03T12:06:16.272Z,84.80
2022-12-03T12:08:57.933Z,83.80
2022-12-03T12:11:30.685Z,90.50
2022-12-03T12:14:00.683Z,88.10
2022-12-03T12:16:51.979Z,86.70
2022-12-03T12:19:40.040Z,83.30
2022-12-03T12:22:31.929Z,82.10
2022-12-03T12:25:02.312Z,81.40
2022-12-03T12:27:45.302Z,80.80
2022-12-03T12:30:17.888Z,80.70
2022-12-03T12:32:50.365Z,82.80
2022-12-03T12:35:22.733Z,82.20
2022-12-03T12:37:58.981Z,82.80
2022-12-03T12:40:31.045Z,82.80
2022-12-03T12:43:05.604Z,83.50
2022-12-03T12:45:43.190Z,85.10
2022-12-03T12:48:22.827Z,86.50
2022-12-03T12:51:10.307Z,84.20
2022-12-03T12:53:43.074Z,84.80
2022-12-03T12:56:24.558Z,85.00
2022-12-03T12:58:53.689Z,84.10
2022-12-03T13:01:26.186Z,83.10
2022-12-03T13:03:56.355Z,81.30
2022-12-03T13:06:32.495Z,77.00
2022-12-03T13:09:17.011Z,74.20
2022-12-03T13:11:47.354Z,71.80
2022-12-03T13:14:19.624Z,70.80
2022-12-03T13:16:49.403Z,70.60
2022-12-03T13:22:12.218Z,70.40
2022-12-03T13:24:44.856Z,71.30
2022-12-03T13:27:27.518Z,71.60
2022-12-03T13:30:01.527Z,71.70
2022-12-03T13:32:35.901Z,71.20
2022-12-03T13:38:18.198Z,72.00
2022-12-03T13:40:47.500Z,72.00
2022-12-03T13:43:20.135Z,71.90
2022-12-03T13:45:53.162Z,72.00
2022-12-03T13:48:26.575Z,71.70
2022-12-03T13:52:28.676Z,72.80
2022-12-03T13:57:17.952Z,73.80
2022-12-03T14:00:14.355Z,70.30
2022-12-03T14:02:44.704Z,69.30
2022-12-03T14:05:18.795Z,69.00
2022-12-03T14:08:13.929Z,68.20
2022-12-03T14:10:43.316Z,67.80
2022-12-03T14:13:21.751Z,68.00
2022-12-03T14:15:50.804Z,68.30
2022-12-03T14:18:35.983Z,68.50
2022-12-03T14:21:15.446Z,69.10
2022-12-03T14:23:54.165Z,67.50
2022-12-03T14:26:33.950Z,67.10
2022-12-03T14:29:10.979Z,67.10
2022-12-03T14:31:57.567Z,67.70
2022-12-03T14:34:48.876Z,69.70
2022-12-03T14:37:32.434Z,68.70
2022-12-03T14:40:14.192Z,67.90
2022-12-03T14:42:58.901Z,67.70
2022-12-03T14:54:50.249Z,66.90
2022-12-03T14:57:19.298Z,66.70
2022-12-03T14:59:48.331Z,67.00
2022-12-03T15:02:17.866Z,67.10
2022-12-03T15:04:47.205Z,67.00
2022-12-03T15:07:17.650Z,67.20
2022-12-03T15:09:47.206Z,67.30
2022-12-03T15:12:18.854Z,67.30
2022-12-03T15:14:48.992Z,67.10
2022-12-03T15:17:27.855Z,67.30
2022-12-03T15:20:00.807Z,67.50
2022-12-03T15:22:43.813Z,67.60
2022-12-03T15:29:40.417Z,66.90
2022-12-03T15:33:06.859Z,66.60
2022-12-03T15:44:28.051Z,66.80
2022-12-03T15:46:57.246Z,67.20
2022-12-03T15:49:26.163Z,67.00
2022-12-03T15:51:57.975Z,67.70
2022-12-03T15:55:36.255Z,68.00
2022-12-03T15:58:31.987Z,67.30
2022-12-03T16:01:05.449Z,67.60
2022-12-03T16:03:48.408Z,67.70
2022-12-03T16:11:31.752Z,68.00
2022-12-03T16:14:01.385Z,67.80
2022-12-03T16:16:32.127Z,68.20
2022-12-03T16:19:01.297Z,68.30
2022-12-03T16:21:31.525Z,68.50
2022-12-03T16:24:01.329Z,68.90
2022-12-03T16:26:30.483Z,67.90
2022-12-03T16:28:59.962Z,68.30
2022-12-03T16:31:50.858Z,67.90
2022-12-03T16:34:20.034Z,68.70
2022-12-03T16:36:50.576Z,69.20
2022-12-03T16:39:19.748Z,69.00
2022-12-03T16:41:49.042Z,68.40
2022-12-03T16:44:32.151Z,68.80
2022-12-03T16:47:03.214Z,68.50
2022-12-03T16:49:34.009Z,68.60
2022-12-03T16:52:03.364Z,69.10
2022-12-03T16:54:32.807Z,68.50
2022-12-03T16:57:01.825Z,68.70
2022-12-03T16:59:31.066Z,69.20
2022-12-03T17:02:02.421Z,68.80
2022-12-03T17:04:34.724Z,68.90
2022-12-03T17:07:03.955Z,68.80
2022-12-03T17:09:37.243Z,68.80
2022-12-03T17:12:06.501Z,68.90
2022-12-03T17:14:35.996Z,69.30
2022-12-03T17:17:06.315Z,68.40
2022-12-03T17:19:36.051Z,67.50
2022-12-03T17:22:13.431Z,67.70
2022-12-03T17:24:46.143Z,66.90
2022-12-03T17:27:16.197Z,67.40
2022-12-03T17:29:50.576Z,67.40
2022-12-03T17:32:23.184Z,67.10
2022-12-03T17:34:52.213Z,67.40
2022-12-03T17:37:21.365Z,67.10
2022-12-03T17:39:50.283Z,66.80
2022-12-03T17:42:20.372Z,67.80
2022-12-03T17:44:49.464Z,68.70
2022-12-03T17:47:19.093Z,68.10
2022-12-03T17:49:54.878Z,68.10
2022-12-03T17:52:24.605Z,67.30
2022-12-03T17:55:13.949Z,67.30
2022-12-03T17:57:45.350Z,68.20
2022-12-03T18:00:19.463Z,68.10
2022-12-03T18:02:49.460Z,67.80
2022-12-03T18:05:21.077Z,68.10
2022-12-03T18:07:51.483Z,68.80
2022-12-03T18:10:21.539Z,69.20
2022-12-03T18:12:54.885Z,68.50
2022-12-03T18:15:29.558Z,68.80
2022-12-03T18:18:00.225Z,69.00
2022-12-03T18:20:33.867Z,69.50
2022-12-03T18:23:15.637Z,69.60
2022-12-03T18:25:47.036Z,69.20
2022-12-03T18:28:17.554Z,69.20
2022-12-03T18:30:52.465Z,69.30
2022-12-03T18:33:29.931Z,69.30
2022-12-03T18:36:04.941Z,69.00
2022-12-03T18:38:37.301Z,69.40
2022-12-03T18:41:19.635Z,69.00
2022-12-03T18:43:53.479Z,69.00
2022-12-03T18:46:51.937Z,69.20
2022-12-03T18:49:21.987Z,68.50
2022-12-03T18:51:59.201Z,68.90
2022-12-03T18:54:30.980Z,68.90
2022-12-03T18:57:05.739Z,69.40
2022-12-03T18:59:38.543Z,68.50
2022-12-03T19:02:53.793Z,69.30
2022-12-03T19:05:15.036Z,69.20
2022-12-03T19:08:04.217Z,69.00
2022-12-03T19:10:38.264Z,68.90
2022-12-03T19:13:18.714Z,69.70
2022-12-03T19:15:50.953Z,69.20
2022-12-03T19:18:21.306Z,70.40
2022-12-03T19:20:57.470Z,70.70
2022-12-03T19:23:29.917Z,69.60
2022-12-03T19:26:04.723Z,69.90
2022-12-03T19:28:35.557Z,70.10
2022-12-03T19:31:08.726Z,69.90
2022-12-03T19:33:38.889Z,70.00
2022-12-03T19:36:18.892Z,70.50
2022-12-03T19:38:56.619Z,70.10
2022-12-03T19:41:27.361Z,72.50
2022-12-03T19:43:57.419Z,72.40
2022-12-03T19:46:31.717Z,72.80
2022-12-03T19:49:02.428Z,74.30
2022-12-03T19:51:35.550Z,74.50
2022-12-03T19:54:07.119Z,73.70
2022-12-03T19:56:36.074Z,74.00
2022-12-03T19:59:05.407Z,74.40
2022-12-03T20:01:36.658Z,74.40
2022-12-03T20:04:05.653Z,73.80
2022-12-03T20:06:37.939Z,72.70
2022-12-03T20:09:12.373Z,73.00
2022-12-03T20:11:44.769Z,74.10
2022-12-03T20:14:15.974Z,74.70
2022-12-03T20:16:45.479Z,74.10
2022-12-03T20:19:17.994Z,74.90
2022-12-03T20:21:46.840Z,74.80
2022-12-03T20:24:19.270Z,73.60
2022-12-03T20:26:47.837Z,73.40
2022-12-03T20:29:16.424Z,73.50
2022-12-03T20:31:45.600Z,73.20
2022-12-03T20:34:14.073Z,73.50
2022-12-03T20:36:44.172Z,73.50
2022-12-03T20:39:12.719Z,73.40
2022-12-03T20:41:42.382Z,73.40
2022-12-03T20:44:10.907Z,72.80
2022-12-03T20:46:40.506Z,72.80
2022-12-03T20:49:09.505Z,72.60
2022-12-03T20:51:38.190Z,72.70
2022-12-03T20:54:06.618Z,72.70
2022-12-03T20:56:39.375Z,73.00
2022-12-03T20:59:12.585Z,72.10
2022-12-03T21:01:41.797Z,72.20
2022-12-03T21:04:13.788Z,72.20
2022-12-03T21:06:42.806Z,72.20
2022-12-03T21:09:13.355Z,72.30
2022-12-03T21:11:43.453Z,72.00
2022-12-03T21:14:13.290Z,72.10
2022-12-03T21:19:31.135Z,72.20
2022-12-03T21:21:59.578Z,73.90
2022-12-03T21:24:28.016Z,72.60
2022-12-03T21:26:57.834Z,72.70
2022-12-03T21:29:27.484Z,72.20
2022-12-03T21:31:55.849Z,72.20
2022-12-03T21:34:24.247Z,72.20
2022-12-03T21:36:52.656Z,71.80
2022-12-03T21:39:21.075Z,71.90
2022-12-03T21:42:33.270Z,71.90
2022-12-03T21:44:39.859Z,71.80
2022-12-03T21:47:14.283Z,71.80
2022-12-03T21:49:43.635Z,71.60
2022-12-03T21:52:12.057Z,71.50
2022-12-03T21:54:40.436Z,71.70
2022-12-03T21:57:08.880Z,71.50
2022-12-03T21:59:37.208Z,71.50
2022-12-03T22:02:07.693Z,72.10
2022-12-03T22:04:36.142Z,71.30
2022-12-03T22:07:05.830Z,71.40
2022-12-03T22:09:35.046Z,71.40
2022-12-03T22:12:03.468Z,71.40
2022-12-03T22:14:32.310Z,71.40
2022-12-03T22:17:01.034Z,71.50
2022-12-03T22:19:31.165Z,74.40
2022-12-03T22:21:59.459Z,73.40
2022-12-03T22:24:27.941Z,73.30
2022-12-03T22:26:56.429Z,73.10
2022-12-03T22:29:24.943Z,73.20
2022-12-03T22:31:53.498Z,73.20
2022-12-03T22:34:21.965Z,73.10
2022-12-03T22:36:51.713Z,73.10
2022-12-03T22:39:20.458Z,73.10
2022-12-03T22:41:48.804Z,73.00
2022-12-03T22:44:17.233Z,73.00
2022-12-03T22:46:45.743Z,73.40
2022-12-03T22:49:14.830Z,73.80
2022-12-03T22:51:47.231Z,73.50
2022-12-03T22:54:20.870Z,73.50
2022-12-03T22:56:52.282Z,73.50
2022-12-03T22:59:20.878Z,73.40
2022-12-03T23:01:49.439Z,73.40
2022-12-03T23:04:18.367Z,73.50
2022-12-03T23:06:46.835Z,73.20
2022-12-03T23:09:16.814Z,73.30
2022-12-03T23:11:46.081Z,73.40
2022-12-03T23:14:15.186Z,73.40
2022-12-03T23:16:43.580Z,73.30
2022-12-03T23:19:11.958Z,72.90
2022-12-03T23:21:40.205Z,72.50
2022-12-03T23:24:08.703Z,72.30
2022-12-03T23:26:39.764Z,72.50
2022-12-03T23:29:08.572Z,72.60
2022-12-03T23:47:29.000Z,74.30
2022-12-03T23:49:57.951Z,75.30
2022-12-03T23:52:27.263Z,75.60
2022-12-03T23:54:56.234Z,72.70
2022-12-03T23:57:26.467Z,74.40
2022-12-03T23:59:56.335Z,70.90
